Time;durP1;ratioP1;P1;durP2;ratioP2;P2;SDS_P1;SDS_P2;PMS_P1;PMS_P2;Temp;Humidity;BMP_temperature;BMP_pressure;BME280_temperature;BME280_humidity;BME280_pressure;Samples;Min_cycle;Max_cycle;Signal;HPM_P1;HPM_P2
2022/05/26 00:03:49;;;;;;;1.67;1.38;;;;;;;24.43;44.77;100537.19;20803305;27;98114;-79
2022/05/26 00:14:10;;;;;;;1.73;1.40;;;;;;;24.43;44.52;100551.25;20793354;27;100978;-79
2022/05/26 00:24:11;;;;;;;2.05;1.80;;;;;;;24.43;44.65;100561.00;20798673;27;97932;-79
2022/05/26 00:34:11;;;;;;;1.50;1.40;;;;;;;24.44;44.41;100571.47;20801528;27;99002;-79
2022/05/26 00:44:12;;;;;;;1.42;1.30;;;;;;;24.42;44.64;100580.50;20776798;27;97843;-80
2022/05/26 00:54:18;;;;;;;1.50;1.20;;;;;;;24.40;44.07;100588.59;20811745;27;99697;-80
2022/05/26 01:04:22;;;;;;;1.38;1.27;;;;;;;24.40;44.34;100596.53;20796218;27;101751;-80
2022/05/26 01:14:27;;;;;;;2.25;1.40;;;;;;;24.39;44.16;100602.78;20800446;27;96929;-79
2022/05/26 01:24:34;;;;;;;1.75;1.50;;;;;;;24.37;44.43;100607.38;20799171;27;99104;-78
2022/05/26 01:34:58;;;;;;;1.00;1.00;;;;;;;24.35;44.40;100603.19;20790091;27;97094;-79
2022/05/26 01:45:23;;;;;;;1.40;1.30;;;;;;;24.35;44.11;100600.53;20793662;27;99172;-79
2022/05/26 01:56:09;;;;;;;3.15;1.45;;;;;;;24.35;44.31;100600.53;20799766;27;100248;-78
2022/05/26 02:06:19;;;;;;;1.27;1.17;;;;;;;24.33;44.31;100613.91;20751127;27;97737;-79
2022/05/26 02:16:38;;;;;;;1.85;1.20;;;;;;;24.31;44.22;100629.09;20802516;27;96928;-79
2022/05/26 02:26:39;;;;;;;1.20;1.10;;;;;;;24.30;44.54;100641.50;20797964;27;99820;-79
2022/05/26 02:36:42;;;;;;;1.13;1.02;;;;;;;24.30;44.28;100656.50;20803818;27;96949;-78
2022/05/26 02:46:50;;;;;;;1.17;1.00;;;;;;;24.28;44.08;100654.00;20800101;27;97629;-79
2022/05/26 02:57:18;;;;;;;1.42;1.23;;;;;;;24.27;44.06;100649.69;20791773;27;97448;-80
2022/05/26 03:07:24;;;;;;;1.25;1.10;;;;;;;24.24;44.22;100649.97;20782622;27;98268;-79
2022/05/26 03:17:25;;;;;;;1.10;0.93;;;;;;;24.25;44.01;100669.31;20775173;27;98916;-79
2022/05/26 03:27:26;;;;;;;1.25;0.88;;;;;;;24.24;43.93;100679.06;20790384;27;97445;-79
2022/05/26 03:47:46;;;;;;;1.33;1.00;;;;;;;24.24;44.39;100707.31;20789763;27;97245;-78
2022/05/26 03:57:47;;;;;;;4.32;1.13;;;;;;;24.23;44.74;100718.88;20771479;27;97065;-79
2022/05/26 04:07:48;;;;;;;5.53;1.10;;;;;;;24.23;44.86;100721.53;20784741;27;101366;-78
2022/05/26 04:17:48;;;;;;;3.55;1.15;;;;;;;24.24;44.91;100734.66;20763666;27;98323;-76
2022/05/26 04:27:49;;;;;;;1.20;1.08;;;;;;;24.23;45.04;100737.41;20780802;27;97605;-79
2022/05/26 04:37:49;;;;;;;2.90;1.40;;;;;;;23.51;39.92;100760.94;20766959;27;98469;-79
2022/05/26 04:47:52;;;;;;;2.33;1.90;;;;;;;23.15;39.28;100769.00;20792324;27;97894;-78
2022/05/26 04:57:52;;;;;;;;;;;;;;;23.07;39.29;100770.59;20769113;27;97645;-78
2022/05/26 05:07:53;;;;;;;4.15;1.52;;;;;;;22.85;39.60;100783.69;20784187;27;101134;-77
2022/05/26 05:17:53;;;;;;;2.53;1.53;;;;;;;22.72;39.91;100793.53;20796896;27;98359;-77
2022/05/26 05:27:57;;;;;;;7.32;1.60;;;;;;;22.86;40.39;100803.00;20763072;27;98979;-79
2022/05/26 05:37:57;;;;;;;3.83;1.30;;;;;;;23.11;40.48;100817.78;20729954;27;98051;-80
2022/05/26 05:47:58;;;;;;;5.88;1.48;;;;;;;23.29;40.90;100830.50;20787731;27;97755;-80
2022/05/26 05:57:59;;;;;;;4.78;1.50;;;;;;;23.40;41.37;100829.66;20762618;27;97362;-80
2022/05/26 06:08:03;;;;;;;3.13;1.30;;;;;;;23.48;41.32;100833.38;20772276;27;97957;-79
2022/05/26 06:18:06;;;;;;;3.35;1.05;;;;;;;23.55;41.98;100836.38;20785467;27;99365;-80
2022/05/26 06:38:26;;;;;;;3.13;1.27;;;;;;;23.67;42.05;100859.16;20754825;27;97246;-79
2022/05/26 06:48:27;;;;;;;1.73;1.00;;;;;;;23.72;42.38;100874.66;20774445;27;98733;-81
2022/05/26 06:58:27;;;;;;;2.20;0.90;;;;;;;23.76;42.25;100867.31;20813506;27;98760;-81
2022/05/26 07:08:28;;;;;;;1.05;0.80;;;;;;;23.80;42.16;100861.66;20809977;27;97294;-80
2022/05/26 07:18:29;;;;;;;2.85;1.10;;;;;;;23.85;42.53;100857.78;20820386;27;97021;-81
2022/05/26 07:28:32;;;;;;;2.63;1.00;;;;;;;23.89;42.20;100869.78;20821551;27;97318;-81
2022/05/26 07:48:53;;;;;;;1.58;1.00;;;;;;;23.94;42.73;100884.38;20801960;27;100166;-81
2022/05/26 07:58:54;;;;;;;2.25;1.35;;;;;;;23.95;42.45;100899.28;20788075;27;98912;-78
2022/05/26 08:08:54;;;;;;;2.17;0.90;;;;;;;23.99;42.25;100897.22;20804413;27;98357;-79
2022/05/26 08:18:55;;;;;;;1.65;1.10;;;;;;;24.01;42.29;100892.66;20807087;27;98089;-78
2022/05/26 08:28:55;;;;;;;1.33;1.00;;;;;;;24.01;42.26;100892.66;20807384;27;97206;-78
2022/05/26 08:38:56;;;;;;;3.78;1.15;;;;;;;23.92;40.05;100893.38;20806229;27;98129;-78
2022/05/26 08:49:31;;;;;;;1.75;0.98;;;;;;;23.85;39.59;100897.47;20816606;27;100837;-79
2022/05/26 08:59:39;;;;;;;2.75;1.23;;;;;;;23.81;39.14;100908.31;20800588;27;98462;-79
2022/05/26 09:20:35;;;;;;;2.40;1.10;;;;;;;23.86;37.91;100897.34;20824362;27;96872;-78
2022/05/26 09:30:37;;;;;;;0.95;0.70;;;;;;;23.91;36.26;100897.81;20823781;27;96821;-78
2022/05/26 09:40:46;;;;;;;3.07;0.97;;;;;;;24.00;35.63;100895.41;20817699;27;97571;-78
2022/05/26 09:50:52;;;;;;;1.98;0.70;;;;;;;24.09;35.51;100889.38;20810817;27;97524;-80
2022/05/26 10:00:56;;;;;;;0.77;0.73;;;;;;;24.15;34.67;100883.56;20806174;27;98060;-81
2022/05/26 10:11:05;;;;;;;4.88;1.20;;;;;;;24.25;36.87;100878.38;20805672;27;96895;-80
2022/05/26 10:21:18;;;;;;;1.65;0.95;;;;;;;24.30;35.11;100869.09;20787614;27;97969;-79
2022/05/26 10:31:37;;;;;;;2.47;1.05;;;;;;;24.37;35.01;100876.50;20799621;27;97112;-79
2022/05/26 10:41:51;;;;;;;1.38;0.90;;;;;;;24.44;34.40;100878.50;20800207;27;100801;-79
2022/05/26 10:52:00;;;;;;;3.60;0.80;;;;;;;24.50;34.74;100866.56;20799766;27;97199;-79
2022/05/26 11:02:15;;;;;;;0.57;0.57;;;;;;;24.48;32.84;100871.16;20802760;27;100514;-76
2022/05/26 11:12:35;;;;;;;3.60;0.70;;;;;;;24.62;33.14;100865.53;20800076;27;98755;-78
2022/05/26 11:22:36;;;;;;;2.88;0.68;;;;;;;24.63;32.26;100855.75;20802702;27;100130;-78
2022/05/26 11:43:07;;;;;;;1.17;0.70;;;;;;;24.81;33.36;100844.63;20823670;27;97405;-76
2022/05/26 11:53:19;;;;;;;1.58;0.90;;;;;;;24.89;33.59;100847.44;20822431;27;97637;-76
2022/05/26 12:03:23;;;;;;;4.88;0.73;;;;;;;24.95;33.64;100846.94;20798141;27;97049;-76
2022/05/26 12:13:25;;;;;;;3.33;0.85;;;;;;;24.94;32.25;100814.28;20800173;27;97743;-76
2022/05/26 12:23:27;;;;;;;1.70;0.73;;;;;;;25.10;33.38;100807.66;20787352;27;98571;-75
2022/05/26 12:33:33;;;;;;;2.58;1.00;;;;;;;25.14;33.40;100809.06;20775278;27;97616;-76
2022/05/26 12:44:11;;;;;;;2.15;0.75;;;;;;;25.29;32.07;100782.16;20792829;27;99388;-78
2022/05/26 12:54:19;;;;;;;13.88;1.63;;;;;;;25.31;32.78;100793.47;20754892;27;98831;-78
2022/05/26 13:04:32;;;;;;;1.80;0.60;;;;;;;25.31;32.19;100789.00;20823598;27;97012;-78
2022/05/26 13:14:49;;;;;;;5.38;0.80;;;;;;;25.26;32.08;100786.75;20808753;27;100692;-79
2022/05/26 13:24:57;;;;;;;0.68;0.68;;;;;;;25.35;33.64;100779.81;20813357;27;96916;-79
2022/05/26 13:34:58;;;;;;;6.18;0.77;;;;;;;25.42;32.46;100769.53;20790066;27;98011;-80
2022/05/26 13:44:59;;;;;;;0.93;0.63;;;;;;;25.51;32.07;100755.44;20784001;27;97352;-80
2022/05/26 13:55:04;;;;;;;1.53;0.70;;;;;;;25.61;30.26;100767.84;20793556;27;99115;-80
2022/05/26 14:05:08;;;;;;;0.90;0.60;;;;;;;25.61;30.83;100752.81;20810881;27;99722;-79
2022/05/26 14:15:10;;;;;;;0.82;0.57;;;;;;;25.61;31.21;100742.19;20798152;27;97849;-80
2022/05/26 14:25:25;;;;;;;2.92;0.70;;;;;;;25.62;30.57;100735.91;20790364;27;97731;-79
2022/05/26 14:35:28;;;;;;;2.25;0.77;;;;;;;25.67;32.01;100722.22;20797212;27;98244;-83
2022/05/26 14:45:29;;;;;;;1.23;0.70;;;;;;;25.78;32.16;100730.03;20763652;27;101276;-79
2022/05/26 14:55:34;;;;;;;1.17;0.70;;;;;;;25.86;32.50;100710.75;20809233;27;98913;-81
2022/05/26 15:05:37;;;;;;;2.63;0.70;;;;;;;25.92;32.31;100714.66;20767479;27;97073;-77
2022/05/26 15:15:38;;;;;;;1.35;0.80;;;;;;;25.96;32.39;100690.34;20801878;27;97189;-80
2022/05/26 15:26:07;;;;;;;1.00;0.43;;;;;;;26.03;32.18;100680.84;20789571;27;100288;-80
2022/05/26 15:35:59;;;;;;;0.77;0.70;;;;;;;26.06;33.34;100666.44;20780646;27;97895;-79
2022/05/26 15:46:03;;;;;;;2.73;0.67;;;;;;;26.26;31.27;100683.19;20789453;27;97155;-77
2022/05/26 15:56:06;;;;;;;2.05;1.00;;;;;;;26.79;30.52;100687.03;20791283;27;97989;-80
2022/05/26 16:06:06;;;;;;;0.70;0.68;;;;;;;26.71;30.42;100675.41;20791089;27;100657;-77
2022/05/26 16:16:07;;;;;;;1.02;0.80;;;;;;;26.51;31.40;100675.50;20781636;27;96939;-80
2022/05/26 16:26:14;;;;;;;2.90;0.80;;;;;;;26.39;31.34;100682.00;20805676;27;98629;-79
2022/05/26 16:46:34;;;;;;;0.95;0.90;;;;;;;26.22;32.15;100676.50;20810560;27;98148;-80
2022/05/26 16:56:37;;;;;;;2.45;0.70;;;;;;;26.11;31.25;100682.81;20833615;27;97336;-81
2022/05/26 17:06:51;;;;;;;1.50;0.90;;;;;;;26.08;31.76;100674.31;20810053;27;100068;-81
2022/05/26 17:27:19;;;;;;;1.13;0.90;;;;;;;25.93;32.42;100680.03;20804539;27;97246;-79
2022/05/26 17:37:20;;;;;;;2.95;0.82;;;;;;;25.89;32.92;100665.38;20804025;27;98798;-79
2022/05/26 17:47:21;;;;;;;0.88;0.70;;;;;;;25.80;33.02;100671.53;20817603;27;96888;-81
2022/05/26 17:57:22;;;;;;;2.85;0.90;;;;;;;25.70;33.12;100674.22;20790703;27;100585;-80
2022/05/26 18:07:23;;;;;;;2.97;0.90;;;;;;;25.66;33.25;100667.50;20794970;27;97701;-75
2022/05/26 18:17:27;;;;;;;0.80;0.60;;;;;;;25.60;33.38;100674.22;20797745;27;97330;-75
2022/05/26 18:27:28;;;;;;;2.83;0.80;;;;;;;25.52;33.53;100679.38;20785641;27;100399;-77
2022/05/26 18:37:35;;;;;;;3.78;1.13;;;;;;;25.49;34.04;100687.63;20778283;27;97673;-75
2022/05/26 18:47:40;;;;;;;4.63;1.00;;;;;;;25.52;34.30;100697.94;20783113;27;97662;-79
2022/05/26 18:57:41;;;;;;;3.17;0.80;;;;;;;25.49;34.20;100706.19;20805036;27;100730;-78
2022/05/26 19:07:42;;;;;;;1.55;1.10;;;;;;;25.45;34.59;100713.59;20770785;27;97677;-77
2022/05/26 19:28:02;;;;;;;2.50;0.90;;;;;;;25.16;34.79;100732.06;20783913;27;99136;-80
2022/05/26 19:38:03;;;;;;;0.80;0.80;;;;;;;24.94;35.25;100732.16;20810185;27;97854;-80
2022/05/26 19:48:05;;;;;;;0.90;0.90;;;;;;;24.79;35.52;100733.50;20805302;27;96980;-80
2022/05/26 19:58:05;;;;;;;1.35;0.93;;;;;;;24.70;35.91;100748.38;20802938;27;99768;-80
2022/05/26 20:08:07;;;;;;;1.15;0.80;;;;;;;24.59;35.99;100754.56;20803865;27;97372;-80
2022/05/26 20:18:10;;;;;;;2.20;1.10;;;;;;;24.51;36.07;100753.56;20807478;27;100102;-80
2022/05/26 20:38:32;;;;;;;2.07;0.90;;;;;;;24.34;36.63;100762.94;20789028;27;98212;-80
2022/05/26 20:48:36;;;;;;;2.28;1.00;;;;;;;24.35;36.75;100762.84;20799829;27;96997;-80
2022/05/26 20:58:38;;;;;;;1.10;0.90;;;;;;;24.34;37.46;100766.44;20792415;27;98407;-80
2022/05/26 21:08:38;;;;;;;4.73;1.00;;;;;;;24.32;37.45;100768.38;20806188;27;99666;-80
2022/05/26 21:18:41;;;;;;;3.37;1.20;;;;;;;24.33;37.24;100764.78;20781078;27;97816;-79
2022/05/26 21:28:44;;;;;;;1.52;1.10;;;;;;;24.26;37.47;100759.16;20787893;27;97401;-80
2022/05/26 21:38:45;;;;;;;1.30;0.90;;;;;;;24.24;37.43;100761.09;20766631;27;100269;-80
2022/05/26 21:48:47;;;;;;;1.05;0.95;;;;;;;24.20;37.91;100757.03;20772481;27;99685;-81
2022/05/26 21:58:50;;;;;;;3.20;1.30;;;;;;;24.12;38.14;100770.06;20799686;27;99039;-79
2022/05/26 22:19:11;;;;;;;2.65;1.45;;;;;;;24.04;38.26;100767.22;20795346;27;97891;-79
2022/05/26 22:29:12;;;;;;;3.35;1.40;;;;;;;24.00;38.51;100760.50;20795963;27;98791;-79
2022/05/26 22:39:14;;;;;;;2.50;1.42;;;;;;;23.94;38.58;100765.34;20769767;27;97241;-80
2022/05/26 22:49:15;;;;;;;1.30;1.07;;;;;;;23.92;38.84;100766.41;20794976;27;97649;-80
2022/05/26 22:59:17;;;;;;;2.42;1.25;;;;;;;23.87;39.13;100769.44;20780346;27;97839;-80
2022/05/26 23:09:17;;;;;;;2.97;1.40;;;;;;;23.81;39.36;100756.72;20775088;27;97548;-80
2022/05/26 23:19:18;;;;;;;1.40;1.00;;;;;;;23.79;38.96;100748.94;20783030;27;97587;-80
2022/05/26 23:29:18;;;;;;;2.47;1.10;;;;;;;23.80;38.96;100741.81;20773003;27;98497;-79
2022/05/26 23:39:19;;;;;;;1.70;1.27;;;;;;;23.78;39.46;100735.84;20798597;27;97038;-79
2022/05/26 23:49:19;;;;;;;1.80;1.40;;;;;;;23.75;39.55;100726.31;20792050;27;97735;-80
2022/05/26 23:59:20;;;;;;;2.25;1.35;;;;;;;23.73;39.66;100717.72;20802948;27;99020;-79
